Flight NumberIRM1061 Date05.02.2018
Departure AirportOIAW Arrival AirportOIII
Departure Time18.04Arrival Time18.58
Pilot In CommandSaeed TabaTabaei Block Time0.90 Hours
Pilot Rating100 % AircraftEP-MON [ Avro RJ100 ]


Distance291.00 Nm. Passengers100
Fuel Used2,274 Kg. Cargo1241 Kg
Expense Details Income Details
Fuel Cost1,830 v$Ticket Sales9,100 v$
Pilot Salary1,209 v$ Cargo income3,757.00 v$
Crew Salary750 v$ Bonus2,879 v$
Gross Profit16,069 v$ ( 16,069 v$ )

Client Versionv2.2.0.rc2 Max Simrate1
Flight Critique Pilot CommentsOIII 051800Z 29004KT 4000 HZ NSC 06/M02 Q1019 A3009 NOSIG // SAV1Z ILS RWY 29L